Theologos P . — SZNB — position and weather

sailwx.info

Track history (hours):
 
Tides and Currents Weather Stations Pressure Air Temp Water Temp Dewpoint Dewpoint Depression Visibility Wind Speed Wind Dir Waves Ship Positions

Theologos P .

Last reported at 2015-Jul-03 07:33 UTC. Time now 2015-Jul-03 07:50 UTC.
Position N 37°28' E 025°20'.

Length 118 m; draft 4.5 m.

Type: Passenger vessel. MMSI: 240521000.

Date/timePositionNaut miles runAvg speedWind from/ knotsBaromVisibWave heightAir tempDewpointWater temp
2015-Jul-03 07:33N 37°28' E 025°20'0 0.0
2015-Jul-03 06:33N 37°28' E 025°20'0 0.0
2015-Jul-03 05:33N 37°28' E 025°20'0 0.0
2015-Jul-03 04:33N 37°28' E 025°20'0 0.0
2015-Jul-03 03:33N 37°28' E 025°20'0 0.0
2015-Jul-03 02:33N 37°28' E 025°20'0 0.0
2015-Jul-03 01:33N 37°28' E 025°20'0 0.0
2015-Jul-03 00:33N 37°28' E 025°20'0 0.0
2015-Jul-02 23:33N 37°28' E 025°20'0 0.0
2015-Jul-02 22:33N 37°28' E 025°20'0 0.0
2015-Jul-02 21:33N 37°28' E 025°20'0 0.0
2015-Jul-02 20:33N 37°28' E 025°20'1 0.8
2015-Jul-02 19:33N 37°28' E 025°19'9 9.5
2015-Jul-02 18:34N 37°32' E 025°08'1818.4
2015-Jul-02 17:33N 37°45' E 024°51'1 0.1
2015-Jul-02 06:34N 37°44' E 024°51'1817.5
2015-Jul-02 05:34N 37°33' E 025°07'1111.1
2015-Jul-02 04:34N 37°28' E 025°20'0 0.0
2015-Jul-02 03:33N 37°28' E 025°20'0 0.0
2015-Jul-02 02:34N 37°28' E 025°20'0 0.0
2015-Jul-02 01:34N 37°28' E 025°20'0 0.0
2015-Jul-02 00:34N 37°28' E 025°20'0 0.0
2015-Jul-01 23:34N 37°28' E 025°20'0 0.0
2015-Jul-01 22:33N 37°28' E 025°20'0 0.0
2015-Jul-01 21:33N 37°28' E 025°20'0 0.0
2015-Jul-01 20:33N 37°28' E 025°20'0 0.1
2015-Jul-01 19:34N 37°28' E 025°20'1010.1
2015-Jul-01 18:33N 37°32' E 025°08'1818.2
2015-Jul-01 17:33N 37°45' E 024°51'43 5.3
2015-Jul-01 09:28N 38°01' E 024°01'1516.5
2015-Jul-01 08:33N 37°57' E 024°19'2813.8
2015-Jul-01 06:33N 37°45' E 024°50'1817.9
2015-Jul-01 05:34N 37°33' E 025°07'1111.2
2015-Jul-01 04:33N 37°28' E 025°20'0 0.0
2015-Jul-01 03:33N 37°28' E 025°20'0 0.0
2015-Jul-01 02:33N 37°28' E 025°20'0 0.0
2015-Jul-01 01:33N 37°28' E 025°20'0 0.0
2015-Jul-01 00:33N 37°28' E 025°20'0 0.0
2015-Jun-30 23:33N 37°28' E 025°20'0 0.0
2015-Jun-30 22:33N 37°28' E 025°20'0 0.0
2015-Jun-30 21:33N 37°28' E 025°20'0 0.0
2015-Jun-30 20:33N 37°28' E 025°20'0 0.0
2015-Jun-30 19:33N 37°28' E 025°20'9 9.3
2015-Jun-30 18:34N 37°32' E 025°09'1616.0
2015-Jun-30 17:34N 37°43' E 024°54'3414.8
2015-Jun-30 15:15N 37°58' E 024°15'12 2.0
2015-Jun-30 09:21N 38°01' E 024°01'1417.0
2015-Jun-30 08:33N 37°57' E 024°17'2914.6
2015-Jun-30 06:33N 37°45' E 024°51'1818.0
2015-Jun-30 05:33N 37°33' E 025°07'1111.1
2015-Jun-30 04:34N 37°28' E 025°20'0 0.0
2015-Jun-30 03:33N 37°28' E 025°20'0 0.0
2015-Jun-30 02:33N 37°28' E 025°20'0 0.0
2015-Jun-30 01:33N 37°28' E 025°20'0 0.0
2015-Jun-30 00:33N 37°28' E 025°20'0 0.0
2015-Jun-29 23:33N 37°28' E 025°20'0 0.0
2015-Jun-29 22:33N 37°28' E 025°20'0 0.0
2015-Jun-29 21:33N 37°28' E 025°20'0 0.0
2015-Jun-29 20:33N 37°28' E 025°20'0 0.0
2015-Jun-29 19:33N 37°28' E 025°20'9 9.4
2015-Jun-29 18:34N 37°32' E 025°09'1817.9
2015-Jun-29 17:33N 37°44' E 024°52'3013.7
2015-Jun-29 15:23N 37°57' E 024°18'14 2.4
2015-Jun-29 09:25N 38°01' E 024°01'1517.7
2015-Jun-29 08:33N 37°56' E 024°19'2813.9
2015-Jun-29 06:33N 37°44' E 024°51'1817.8
2015-Jun-29 05:33N 37°33' E 025°07'1110.7
2015-Jun-29 04:33N 37°28' E 025°20'0 0.0
2015-Jun-29 03:34N 37°28' E 025°20'0 0.0
2015-Jun-29 02:33N 37°28' E 025°20'0 0.0
2015-Jun-29 01:33N 37°28' E 025°20'0 0.0
2015-Jun-29 00:33N 37°28' E 025°20'7 6.9
2015-Jun-28 23:33N 37°31' E 025°12'1313.3
2015-Jun-28 22:34N 37°37' E 024°57'4018.3
2015-Jun-28 20:21N 37°57' E 024°13'11 8.2
2015-Jun-28 19:05N 38°01' E 024°01'917.0
2015-Jun-28 18:32N 37°59' E 024°12'7 2.2
2015-Jun-28 15:25N 37°57' E 024°20'1618.2
2015-Jun-28 14:33N 38°01' E 024°01'5 5.1
2015-Jun-28 13:34N 37°60' E 024°07'4515.0
2015-Jun-28 10:33N 37°39' E 024°58'1211.6
2015-Jun-28 09:33N 37°32' E 025°09'9 9.0
2015-Jun-28 08:33N 37°28' E 025°20'0 0.0
2015-Jun-28 07:34N 37°28' E 025°20'0 0.0
2015-Jun-28 06:33N 37°28' E 025°20'0 0.0
2015-Jun-28 05:33N 37°28' E 025°20'0 0.0
2015-Jun-28 04:33N 37°28' E 025°20'0 0.0
2015-Jun-28 03:33N 37°28' E 025°20'0 0.0
2015-Jun-28 02:33N 37°28' E 025°20'0 0.0
2015-Jun-28 01:33N 37°28' E 025°20'0 0.0
2015-Jun-28 00:33N 37°28' E 025°20'0 0.0
2015-Jun-27 23:33N 37°28' E 025°20'0 0.0
2015-Jun-27 22:33N 37°28' E 025°20'0 0.0
2015-Jun-27 21:34N 37°28' E 025°20'0 0.0
2015-Jun-27 20:33N 37°28' E 025°20'5 5.0
2015-Jun-27 19:33N 37°30' E 025°14'1313.0
2015-Jun-27 18:33N 37°37' E 025°00'4615.2
2015-Jun-27 15:33N 37°59' E 024°10'7 6.0
2015-Jun-27 14:19N 38°01' E 024°01'1316.7
2015-Jun-27 13:32N 37°57' E 024°16'3014.0
2015-Jun-27 11:25N 37°45' E 024°50'1517.7
2015-Jun-27 10:34N 37°35' E 025°05'1312.9
2015-Jun-27 09:33N 37°28' E 025°19'5 5.2
2015-Jun-27 08:33N 37°30' E 025°13'1211.8
2015-Jun-27 07:33N 37°37' E 025°01'4715.4
2015-Jun-27 04:32N 37°59' E 024°09'5 1.2
2015-Jun-27 00:33N 38°01' E 024°03'1817.6
2015-Jun-26 23:33N 37°54' E 024°23'2317.7
2015-Jun-26 22:15N 37°44' E 024°50'1218.0
2015-Jun-26 21:34N 37°36' E 025°01'1616.3
2015-Jun-26 20:33N 37°28' E 025°19'4 3.7
2015-Jun-26 19:33N 37°29' E 025°15'1110.7
2015-Jun-26 18:33N 37°35' E 025°04'4814.5
2015-Jun-26 15:17N 37°59' E 024°11'9 1.5
2015-Jun-26 09:28N 38°01' E 024°01'1817.6
2015-Jun-26 08:25N 37°56' E 024°23'2513.1
2015-Jun-26 06:33N 37°45' E 024°51'1818.1
2015-Jun-26 05:33N 37°33' E 025°07'1110.9
2015-Jun-26 04:33N 37°28' E 025°20'0 0.0
2015-Jun-26 03:34N 37°28' E 025°20'0 0.0
2015-Jun-26 02:34N 37°28' E 025°20'0 0.0
2015-Jun-26 01:33N 37°28' E 025°20'0 0.0
2015-Jun-26 00:34N 37°28' E 025°20'0 0.0
2015-Jun-25 23:34N 37°28' E 025°20'0 0.0
2015-Jun-25 22:34N 37°28' E 025°20'0 0.0
2015-Jun-25 21:34N 37°28' E 025°20'0 0.0
2015-Jun-25 20:34N 37°28' E 025°20'8 7.5
2015-Jun-25 19:33N 37°31' E 025°11'1212.4
2015-Jun-25 18:33N 37°38' E 024°59'51 5.6
2015-Jun-25 09:28N 38°01' E 024°01'1617.0
2015-Jun-25 08:33N 37°56' E 024°19'2713.6
2015-Jun-25 06:32N 37°45' E 024°51'1818.1
2015-Jun-25 05:33N 37°33' E 025°07'1111.0
2015-Jun-25 04:33N 37°28' E 025°20'0 0.0
2015-Jun-25 03:33N 37°28' E 025°20'0 0.0
2015-Jun-25 02:33N 37°28' E 025°20'0 0.0
2015-Jun-25 01:33N 37°28' E 025°20'0 0.0
2015-Jun-25 00:33N 37°28' E 025°20'0 0.0
2015-Jun-24 23:33N 37°28' E 025°20'0 0.0
2015-Jun-24 22:33N 37°28' E 025°20'0 0.0
2015-Jun-24 21:33N 37°28' E 025°20'0 0.0
2015-Jun-24 20:34N 37°28' E 025°20'0 0.2
2015-Jun-24 19:34N 37°28' E 025°19'1111.4
2015-Jun-24 18:33N 37°33' E 025°06'5315.2
2015-Jun-24 15:03N 37°59' E 024°08'6 1.1
2015-Jun-24 09:27N 38°01' E 024°01'1516.6
2015-Jun-24 08:33N 37°57' E 024°19'2813.8
2015-Jun-24 06:32N 37°45' E 024°50'1818.2
2015-Jun-24 05:34N 37°33' E 025°07'1111.0
2015-Jun-24 04:33N 37°28' E 025°20'0 0.0
2015-Jun-24 03:33N 37°28' E 025°20'0 0.0
2015-Jun-24 02:33N 37°28' E 025°20'0 0.0
2015-Jun-24 01:33N 37°28' E 025°20'0 0.0
2015-Jun-24 00:33N 37°28' E 025°20'0 0.0
2015-Jun-23 23:33N 37°28' E 025°20'0 0.0
2015-Jun-23 22:33N 37°28' E 025°20'0 0.0
2015-Jun-23 21:33N 37°28' E 025°20'0 0.0
2015-Jun-23 20:33N 37°28' E 025°20'2 1.6
2015-Jun-23 19:33N 37°28' E 025°18'816.6
2015-Jun-23 19:05N 37°32' E 025°09'  
Track history (hours):
 
Tides and Currents Weather Stations Pressure Air Temp Water Temp Dewpoint Dewpoint Depression Visibility Wind Speed Wind Dir Waves Ship Positions

Theologos P .

Last reported at 2015-Jul-03 07:33 UTC. Time now 2015-Jul-03 07:50 UTC.
Position N 37°28' E 025°20'.

Length 118 m; draft 4.5 m.

Type: Passenger vessel. MMSI: 240521000.

Date/timePositionNaut miles runAvg speedWind from/ knotsBaromVisibWave heightAir tempDewpointWater temp
2015-Jul-03 07:33N 37°28' E 025°20'0 0.0
2015-Jul-03 06:33N 37°28' E 025°20'0 0.0
2015-Jul-03 05:33N 37°28' E 025°20'0 0.0
2015-Jul-03 04:33N 37°28' E 025°20'0 0.0
2015-Jul-03 03:33N 37°28' E 025°20'0 0.0
2015-Jul-03 02:33N 37°28' E 025°20'0 0.0
2015-Jul-03 01:33N 37°28' E 025°20'0 0.0
2015-Jul-03 00:33N 37°28' E 025°20'0 0.0
2015-Jul-02 23:33N 37°28' E 025°20'0 0.0
2015-Jul-02 22:33N 37°28' E 025°20'0 0.0
2015-Jul-02 21:33N 37°28' E 025°20'0 0.0
2015-Jul-02 20:33N 37°28' E 025°20'1 0.8
2015-Jul-02 19:33N 37°28' E 025°19'9 9.5
2015-Jul-02 18:34N 37°32' E 025°08'1818.4
2015-Jul-02 17:33N 37°45' E 024°51'1 0.1
2015-Jul-02 06:34N 37°44' E 024°51'1817.5
2015-Jul-02 05:34N 37°33' E 025°07'1111.1
2015-Jul-02 04:34N 37°28' E 025°20'0 0.0
2015-Jul-02 03:33N 37°28' E 025°20'0 0.0
2015-Jul-02 02:34N 37°28' E 025°20'0 0.0
2015-Jul-02 01:34N 37°28' E 025°20'0 0.0
2015-Jul-02 00:34N 37°28' E 025°20'0 0.0
2015-Jul-01 23:34N 37°28' E 025°20'0 0.0
2015-Jul-01 22:33N 37°28' E 025°20'0 0.0
2015-Jul-01 21:33N 37°28' E 025°20'0 0.0
2015-Jul-01 20:33N 37°28' E 025°20'0 0.1
2015-Jul-01 19:34N 37°28' E 025°20'1010.1
2015-Jul-01 18:33N 37°32' E 025°08'1818.2
2015-Jul-01 17:33N 37°45' E 024°51'43 5.3
2015-Jul-01 09:28N 38°01' E 024°01'1516.5
2015-Jul-01 08:33N 37°57' E 024°19'2813.8
2015-Jul-01 06:33N 37°45' E 024°50'1817.9
2015-Jul-01 05:34N 37°33' E 025°07'1111.2
2015-Jul-01 04:33N 37°28' E 025°20'0 0.0
2015-Jul-01 03:33N 37°28' E 025°20'0 0.0
2015-Jul-01 02:33N 37°28' E 025°20'0 0.0
2015-Jul-01 01:33N 37°28' E 025°20'0 0.0
2015-Jul-01 00:33N 37°28' E 025°20'0 0.0
2015-Jun-30 23:33N 37°28' E 025°20'0 0.0
2015-Jun-30 22:33N 37°28' E 025°20'0 0.0
2015-Jun-30 21:33N 37°28' E 025°20'0 0.0
2015-Jun-30 20:33N 37°28' E 025°20'0 0.0
2015-Jun-30 19:33N 37°28' E 025°20'9 9.3
2015-Jun-30 18:34N 37°32' E 025°09'1616.0
2015-Jun-30 17:34N 37°43' E 024°54'3414.8
2015-Jun-30 15:15N 37°58' E 024°15'12 2.0
2015-Jun-30 09:21N 38°01' E 024°01'1417.0
2015-Jun-30 08:33N 37°57' E 024°17'2914.6
2015-Jun-30 06:33N 37°45' E 024°51'1818.0
2015-Jun-30 05:33N 37°33' E 025°07'1111.1
2015-Jun-30 04:34N 37°28' E 025°20'0 0.0
2015-Jun-30 03:33N 37°28' E 025°20'0 0.0
2015-Jun-30 02:33N 37°28' E 025°20'0 0.0
2015-Jun-30 01:33N 37°28' E 025°20'0 0.0
2015-Jun-30 00:33N 37°28' E 025°20'0 0.0
2015-Jun-29 23:33N 37°28' E 025°20'0 0.0
2015-Jun-29 22:33N 37°28' E 025°20'0 0.0
2015-Jun-29 21:33N 37°28' E 025°20'0 0.0
2015-Jun-29 20:33N 37°28' E 025°20'0 0.0
2015-Jun-29 19:33N 37°28' E 025°20'9 9.4
2015-Jun-29 18:34N 37°32' E 025°09'1817.9
2015-Jun-29 17:33N 37°44' E 024°52'3013.7
2015-Jun-29 15:23N 37°57' E 024°18'14 2.4
2015-Jun-29 09:25N 38°01' E 024°01'1517.7
2015-Jun-29 08:33N 37°56' E 024°19'2813.9
2015-Jun-29 06:33N 37°44' E 024°51'1817.8
2015-Jun-29 05:33N 37°33' E 025°07'1110.7
2015-Jun-29 04:33N 37°28' E 025°20'0 0.0
2015-Jun-29 03:34N 37°28' E 025°20'0 0.0
2015-Jun-29 02:33N 37°28' E 025°20'0 0.0
2015-Jun-29 01:33N 37°28' E 025°20'0 0.0
2015-Jun-29 00:33N 37°28' E 025°20'7 6.9
2015-Jun-28 23:33N 37°31' E 025°12'1313.3
2015-Jun-28 22:34N 37°37' E 024°57'4018.3
2015-Jun-28 20:21N 37°57' E 024°13'11 8.2
2015-Jun-28 19:05N 38°01' E 024°01'917.0
2015-Jun-28 18:32N 37°59' E 024°12'7 2.2
2015-Jun-28 15:25N 37°57' E 024°20'1618.2
2015-Jun-28 14:33N 38°01' E 024°01'5 5.1
2015-Jun-28 13:34N 37°60' E 024°07'4515.0
2015-Jun-28 10:33N 37°39' E 024°58'1211.6
2015-Jun-28 09:33N 37°32' E 025°09'9 9.0
2015-Jun-28 08:33N 37°28' E 025°20'0 0.0
2015-Jun-28 07:34N 37°28' E 025°20'0 0.0
2015-Jun-28 06:33N 37°28' E 025°20'0 0.0
2015-Jun-28 05:33N 37°28' E 025°20'0 0.0
2015-Jun-28 04:33N 37°28' E 025°20'0 0.0
2015-Jun-28 03:33N 37°28' E 025°20'0 0.0
2015-Jun-28 02:33N 37°28' E 025°20'0 0.0
2015-Jun-28 01:33N 37°28' E 025°20'0 0.0
2015-Jun-28 00:33N 37°28' E 025°20'0 0.0
2015-Jun-27 23:33N 37°28' E 025°20'0 0.0
2015-Jun-27 22:33N 37°28' E 025°20'0 0.0
2015-Jun-27 21:34N 37°28' E 025°20'0 0.0
2015-Jun-27 20:33N 37°28' E 025°20'5 5.0
2015-Jun-27 19:33N 37°30' E 025°14'1313.0
2015-Jun-27 18:33N 37°37' E 025°00'4615.2
2015-Jun-27 15:33N 37°59' E 024°10'7 6.0
2015-Jun-27 14:19N 38°01' E 024°01'1316.7
2015-Jun-27 13:32N 37°57' E 024°16'3014.0
2015-Jun-27 11:25N 37°45' E 024°50'1517.7
2015-Jun-27 10:34N 37°35' E 025°05'1312.9
2015-Jun-27 09:33N 37°28' E 025°19'5 5.2
2015-Jun-27 08:33N 37°30' E 025°13'1211.8
2015-Jun-27 07:33N 37°37' E 025°01'4715.4
2015-Jun-27 04:32N 37°59' E 024°09'5 1.2
2015-Jun-27 00:33N 38°01' E 024°03'1817.6
2015-Jun-26 23:33N 37°54' E 024°23'2317.7
2015-Jun-26 22:15N 37°44' E 024°50'1218.0
2015-Jun-26 21:34N 37°36' E 025°01'1616.3
2015-Jun-26 20:33N 37°28' E 025°19'4 3.7
2015-Jun-26 19:33N 37°29' E 025°15'1110.7
2015-Jun-26 18:33N 37°35' E 025°04'4814.5
2015-Jun-26 15:17N 37°59' E 024°11'9 1.5
2015-Jun-26 09:28N 38°01' E 024°01'1817.6
2015-Jun-26 08:25N 37°56' E 024°23'2513.1
2015-Jun-26 06:33N 37°45' E 024°51'1818.1
2015-Jun-26 05:33N 37°33' E 025°07'1110.9
2015-Jun-26 04:33N 37°28' E 025°20'0 0.0
2015-Jun-26 03:34N 37°28' E 025°20'0 0.0
2015-Jun-26 02:34N 37°28' E 025°20'0 0.0
2015-Jun-26 01:33N 37°28' E 025°20'0 0.0
2015-Jun-26 00:34N 37°28' E 025°20'0 0.0
2015-Jun-25 23:34N 37°28' E 025°20'0 0.0
2015-Jun-25 22:34N 37°28' E 025°20'0 0.0
2015-Jun-25 21:34N 37°28' E 025°20'0 0.0
2015-Jun-25 20:34N 37°28' E 025°20'8 7.5
2015-Jun-25 19:33N 37°31' E 025°11'1212.4
2015-Jun-25 18:33N 37°38' E 024°59'51 5.6
2015-Jun-25 09:28N 38°01' E 024°01'1617.0
2015-Jun-25 08:33N 37°56' E 024°19'2713.6
2015-Jun-25 06:32N 37°45' E 024°51'1818.1
2015-Jun-25 05:33N 37°33' E 025°07'1111.0
2015-Jun-25 04:33N 37°28' E 025°20'0 0.0
2015-Jun-25 03:33N 37°28' E 025°20'0 0.0
2015-Jun-25 02:33N 37°28' E 025°20'0 0.0
2015-Jun-25 01:33N 37°28' E 025°20'0 0.0
2015-Jun-25 00:33N 37°28' E 025°20'0 0.0
2015-Jun-24 23:33N 37°28' E 025°20'0 0.0
2015-Jun-24 22:33N 37°28' E 025°20'0 0.0
2015-Jun-24 21:33N 37°28' E 025°20'0 0.0
2015-Jun-24 20:34N 37°28' E 025°20'0 0.2
2015-Jun-24 19:34N 37°28' E 025°19'1111.4
2015-Jun-24 18:33N 37°33' E 025°06'5315.2
2015-Jun-24 15:03N 37°59' E 024°08'6 1.1
2015-Jun-24 09:27N 38°01' E 024°01'1516.6
2015-Jun-24 08:33N 37°57' E 024°19'2813.8
2015-Jun-24 06:32N 37°45' E 024°50'1818.2
2015-Jun-24 05:34N 37°33' E 025°07'1111.0
2015-Jun-24 04:33N 37°28' E 025°20'0 0.0
2015-Jun-24 03:33N 37°28' E 025°20'0 0.0
2015-Jun-24 02:33N 37°28' E 025°20'0 0.0
2015-Jun-24 01:33N 37°28' E 025°20'0 0.0
2015-Jun-24 00:33N 37°28' E 025°20'0 0.0
2015-Jun-23 23:33N 37°28' E 025°20'0 0.0
2015-Jun-23 22:33N 37°28' E 025°20'0 0.0
2015-Jun-23 21:33N 37°28' E 025°20'0 0.0
2015-Jun-23 20:33N 37°28' E 025°20'2 1.6
2015-Jun-23 19:33N 37°28' E 025°18'816.6
2015-Jun-23 19:05N 37°32' E 025°09'  

Dump ship's entire track history